createdAt,value
2022-09-30T00:01:42.656Z,23.53
2022-09-30T00:04:23.227Z,29.93
2022-09-30T00:06:51.978Z,24.73
2022-09-30T00:09:19.798Z,32.43
2022-09-30T00:11:46.772Z,77.17
2022-09-30T00:14:20.671Z,67.27
2022-09-30T00:16:47.739Z,88.60
2022-09-30T00:19:15.448Z,144.23
2022-09-30T00:21:42.675Z,122.37
2022-09-30T00:24:09.475Z,115.37
2022-09-30T00:26:36.548Z,88.93
2022-09-30T00:29:04.610Z,59.03
2022-09-30T00:31:34.774Z,76.90
2022-09-30T00:34:08.047Z,37.67
2022-09-30T00:36:49.436Z,25.63
2022-09-30T00:39:28.058Z,18.73
2022-09-30T00:42:00.542Z,16.93
2022-09-30T00:44:52.300Z,17.50
2022-09-30T00:47:39.528Z,20.27
2022-09-30T00:50:27.515Z,13.27
2022-09-30T00:53:08.419Z,14.97
2022-09-30T00:56:07.094Z,14.50
2022-09-30T00:58:46.474Z,16.90
2022-09-30T01:01:14.203Z,14.50
2022-09-30T01:03:59.343Z,14.83
2022-09-30T01:06:26.646Z,15.10
2022-09-30T01:08:53.741Z,15.87
2022-09-30T01:11:20.886Z,20.50
2022-09-30T01:13:54.475Z,21.70
2022-09-30T01:16:36.125Z,23.27
2022-09-30T01:19:34.126Z,20.03
2022-09-30T01:22:42.030Z,18.93
2022-09-30T01:25:54.704Z,17.13
2022-09-30T01:29:01.494Z,14.90
2022-09-30T01:32:04.744Z,17.17
2022-09-30T01:35:00.142Z,14.97
2022-09-30T01:37:54.732Z,17.90
2022-09-30T01:40:48.920Z,15.80
2022-09-30T01:43:47.461Z,15.53
2022-09-30T01:46:44.404Z,15.13
2022-09-30T01:49:26.493Z,15.40
2022-09-30T01:52:06.002Z,20.63
2022-09-30T01:55:07.620Z,13.63
2022-09-30T01:58:04.058Z,16.60
2022-09-30T02:00:36.710Z,16.27
2022-09-30T02:03:27.690Z,19.93
2022-09-30T02:06:19.074Z,15.90
2022-09-30T02:09:06.109Z,14.90
2022-09-30T02:11:36.481Z,18.13
2022-09-30T02:14:16.474Z,15.73
2022-09-30T02:16:56.548Z,16.87
2022-09-30T02:19:34.412Z,16.07
2022-09-30T02:22:10.046Z,16.70
2022-09-30T02:24:37.967Z,24.03
2022-09-30T02:27:18.038Z,14.50
2022-09-30T02:29:52.386Z,16.00
2022-09-30T02:32:30.804Z,12.47
2022-09-30T02:35:18.078Z,19.27
2022-09-30T02:38:03.493Z,15.10
2022-09-30T02:40:48.042Z,18.67
2022-09-30T02:43:20.573Z,16.60
2022-09-30T02:46:35.851Z,14.77
2022-09-30T02:49:32.501Z,14.03
2022-09-30T02:52:20.163Z,11.27
2022-09-30T02:55:14.625Z,17.70
2022-09-30T02:58:14.935Z,15.50
2022-09-30T03:00:42.117Z,17.60
2022-09-30T03:03:19.909Z,15.20
2022-09-30T03:05:49.454Z,14.37
2022-09-30T03:08:16.829Z,16.37
2022-09-30T03:10:46.849Z,16.70
2022-09-30T03:13:45.922Z,21.33
2022-09-30T03:16:30.933Z,19.50
2022-09-30T03:19:40.290Z,22.70
2022-09-30T03:22:36.243Z,21.30
2022-09-30T03:25:18.242Z,18.00
2022-09-30T03:28:02.109Z,14.80
2022-09-30T03:30:33.450Z,17.47
2022-09-30T03:33:27.129Z,18.07
2022-09-30T03:36:07.298Z,16.70
2022-09-30T03:38:45.831Z,16.27
2022-09-30T03:41:56.787Z,18.97
2022-09-30T03:44:35.627Z,14.70
2022-09-30T03:47:13.732Z,14.67
2022-09-30T03:49:49.689Z,16.63
2022-09-30T03:52:18.150Z,14.13
2022-09-30T03:54:56.429Z,15.20
2022-09-30T03:57:23.253Z,16.93
2022-09-30T03:59:50.232Z,16.17
2022-09-30T04:02:17.008Z,17.10
2022-09-30T04:04:43.803Z,16.80
2022-09-30T04:07:10.955Z,35.03
2022-09-30T04:09:38.821Z,37.73
2022-09-30T04:12:07.308Z,28.23
2022-09-30T04:14:35.364Z,14.47
2022-09-30T04:17:04.782Z,13.67
2022-09-30T04:19:31.673Z,19.20
2022-09-30T04:21:58.442Z,14.73
2022-09-30T04:24:25.531Z,12.43
2022-09-30T04:26:52.397Z,14.53
2022-09-30T04:29:19.148Z,13.67
2022-09-30T04:31:45.959Z,20.40
2022-09-30T04:34:12.804Z,14.13
2022-09-30T04:36:39.849Z,16.43
2022-09-30T04:39:06.956Z,15.77
2022-09-30T04:41:34.210Z,14.60
2022-09-30T04:44:06.123Z,15.67
2022-09-30T04:46:36.737Z,23.90
2022-09-30T04:49:09.486Z,21.40
2022-09-30T04:51:38.294Z,13.70
2022-09-30T04:54:05.419Z,15.57
2022-09-30T04:56:32.280Z,18.07
2022-09-30T04:58:59.064Z,11.13
2022-09-30T05:01:25.871Z,10.53
2022-09-30T05:03:54.600Z,10.73
2022-09-30T05:06:22.376Z,11.53
2022-09-30T05:08:50.183Z,11.30
2022-09-30T05:11:20.947Z,11.17
2022-09-30T05:13:49.250Z,9.60
2022-09-30T05:16:17.391Z,14.00
2022-09-30T05:18:46.382Z,13.77
2022-09-30T05:21:16.786Z,12.43
2022-09-30T05:23:44.175Z,14.43
2022-09-30T05:26:12.602Z,13.57
2022-09-30T05:28:41.784Z,15.40
2022-09-30T05:31:08.996Z,15.37
2022-09-30T05:33:36.487Z,13.43
2022-09-30T05:36:11.826Z,12.80
2022-09-30T05:38:38.640Z,14.40
2022-09-30T05:41:11.509Z,11.83
2022-09-30T05:43:49.614Z,11.37
2022-09-30T05:46:19.430Z,11.50
2022-09-30T05:48:46.865Z,16.87
2022-09-30T05:51:13.991Z,15.43
2022-09-30T05:53:42.156Z,15.30
2022-09-30T05:56:10.776Z,13.90
2022-09-30T05:58:38.684Z,13.23
2022-09-30T06:01:15.854Z,14.60
2022-09-30T06:03:46.723Z,14.37
2022-09-30T06:06:15.341Z,13.40
2022-09-30T06:08:43.526Z,15.87
2022-09-30T06:11:15.319Z,13.17
2022-09-30T06:13:43.764Z,12.70
2022-09-30T06:16:12.737Z,15.47
2022-09-30T06:18:43.664Z,17.93
2022-09-30T06:21:16.338Z,14.17
2022-09-30T06:23:43.531Z,19.30
2022-09-30T06:26:14.247Z,17.83
2022-09-30T06:28:42.516Z,17.23
2022-09-30T06:31:09.384Z,18.17
2022-09-30T06:33:36.333Z,18.63
2022-09-30T06:36:04.795Z,19.00
2022-09-30T06:38:37.026Z,18.10
2022-09-30T06:41:05.363Z,19.13
2022-09-30T06:43:42.411Z,18.97
2022-09-30T06:46:18.817Z,20.60
2022-09-30T06:48:48.896Z,18.33
2022-09-30T06:51:15.739Z,15.67
2022-09-30T06:53:43.176Z,14.40
2022-09-30T06:56:10.001Z,16.20
2022-09-30T06:58:36.786Z,15.77
2022-09-30T07:01:06.433Z,20.57
2022-09-30T07:03:36.007Z,20.87
2022-09-30T07:06:06.185Z,20.20
2022-09-30T07:08:35.690Z,18.70
2022-09-30T07:11:12.472Z,22.63
2022-09-30T07:13:39.606Z,21.63
2022-09-30T07:16:07.022Z,19.37
2022-09-30T07:18:33.940Z,16.53
2022-09-30T07:21:00.698Z,15.37
2022-09-30T07:23:27.572Z,16.87
2022-09-30T07:25:58.802Z,17.13
2022-09-30T07:28:30.194Z,17.80
2022-09-30T07:31:19.918Z,14.30
2022-09-30T07:33:47.671Z,14.95
2022-09-30T07:36:18.623Z,14.10
2022-09-30T07:38:51.418Z,15.25
2022-09-30T07:41:28.972Z,14.48
2022-09-30T07:43:59.123Z,15.80
2022-09-30T07:46:33.534Z,14.07
2022-09-30T07:49:03.987Z,15.30
2022-09-30T07:51:38.489Z,12.70
2022-09-30T07:54:13.988Z,13.05
2022-09-30T07:57:12.321Z,14.90
2022-09-30T07:59:32.635Z,13.13
2022-09-30T08:01:59.879Z,12.27
2022-09-30T08:04:27.557Z,11.30
2022-09-30T08:07:01.166Z,12.00
2022-09-30T08:09:30.262Z,13.95
2022-09-30T08:11:57.706Z,10.48
2022-09-30T08:14:27.982Z,10.13
2022-09-30T08:16:56.967Z,14.93
2022-09-30T08:19:25.157Z,11.27
2022-09-30T08:21:55.366Z,10.80
2022-09-30T08:24:24.273Z,10.75
2022-09-30T08:26:52.771Z,10.90
2022-09-30T08:29:35.691Z,9.68
2022-09-30T08:32:07.276Z,9.90
2022-09-30T08:34:35.339Z,8.65
2022-09-30T08:37:07.886Z,9.73
2022-09-30T08:39:39.848Z,8.90
2022-09-30T08:42:37.996Z,9.13
2022-09-30T08:45:35.606Z,8.52
2022-09-30T08:48:28.710Z,9.15
2022-09-30T08:51:27.581Z,14.32
2022-09-30T08:53:57.288Z,14.68
2022-09-30T08:56:32.133Z,7.25
2022-09-30T08:59:34.200Z,7.32
2022-09-30T09:02:40.686Z,5.57
2022-09-30T09:05:14.373Z,5.55
2022-09-30T09:08:00.560Z,5.03
2022-09-30T09:10:48.334Z,5.07
2022-09-30T09:13:44.425Z,4.07
2022-09-30T09:16:32.226Z,3.75
2022-09-30T09:19:17.489Z,5.53
2022-09-30T09:22:01.788Z,3.78
2022-09-30T09:24:40.084Z,3.15
2022-09-30T09:27:26.740Z,2.65
2022-09-30T09:30:12.320Z,5.00
2022-09-30T09:32:39.445Z,4.30
2022-09-30T09:35:28.946Z,2.85
2022-09-30T09:38:25.955Z,3.35
2022-09-30T09:41:48.947Z,2.97
2022-09-30T09:44:48.183Z,2.88
2022-09-30T09:47:17.082Z,3.80
2022-09-30T09:49:57.711Z,3.45
2022-09-30T09:52:42.446Z,3.15
2022-09-30T09:55:11.222Z,2.10
2022-09-30T09:57:40.085Z,2.67
2022-09-30T10:00:40.558Z,4.28
2022-09-30T10:03:19.727Z,3.15
2022-09-30T10:06:09.635Z,2.05
2022-09-30T10:08:54.072Z,1.60
2022-09-30T10:11:24.698Z,2.40
2022-09-30T10:13:57.793Z,2.10
2022-09-30T10:16:36.542Z,2.90
2022-09-30T10:19:17.905Z,4.20
2022-09-30T10:21:44.708Z,3.38
2022-09-30T10:24:31.566Z,2.15
2022-09-30T10:26:58.393Z,3.80
2022-09-30T10:29:34.576Z,3.63
2022-09-30T10:32:07.777Z,3.03
2022-09-30T10:34:42.940Z,2.08
2022-09-30T10:37:22.300Z,5.50
2022-09-30T10:40:01.875Z,1.77
2022-09-30T10:42:34.482Z,3.72
2022-09-30T10:45:19.852Z,2.58
2022-09-30T10:47:52.132Z,1.92
2022-09-30T10:50:27.727Z,2.60
2022-09-30T10:53:04.521Z,2.10
2022-09-30T10:55:43.200Z,2.88
2022-09-30T10:58:42.496Z,2.95
2022-09-30T11:01:26.427Z,2.00
2022-09-30T11:04:16.581Z,2.35
2022-09-30T11:06:49.568Z,3.67
2022-09-30T11:09:20.320Z,1.48
2022-09-30T11:11:59.704Z,1.55
2022-09-30T11:14:44.091Z,2.47
2022-09-30T11:17:33.516Z,2.22
2022-09-30T11:20:15.663Z,2.80
2022-09-30T11:22:56.730Z,5.68
2022-09-30T11:25:40.476Z,2.15
2022-09-30T11:28:55.372Z,3.10
2022-09-30T11:31:54.336Z,2.28
2022-09-30T11:35:09.640Z,2.47
2022-09-30T11:38:02.709Z,2.28
2022-09-30T11:40:43.069Z,3.22
2022-09-30T11:43:50.540Z,1.67
2022-09-30T11:47:02.409Z,2.70
2022-09-30T11:50:02.487Z,2.05
2022-09-30T11:53:06.889Z,0.70
2022-09-30T11:56:11.770Z,1.33
2022-09-30T11:58:47.909Z,1.55
2022-09-30T12:01:38.018Z,1.08
2022-09-30T12:04:44.310Z,4.05
2022-09-30T12:07:34.976Z,2.75
2022-09-30T12:10:15.560Z,1.63
2022-09-30T12:12:44.211Z,2.15
2022-09-30T12:15:19.149Z,1.60
2022-09-30T12:17:59.241Z,0.90
2022-09-30T12:20:48.104Z,1.67
2022-09-30T12:23:48.321Z,2.35
2022-09-30T12:26:16.800Z,1.63
2022-09-30T12:29:11.784Z,0.80
2022-09-30T12:32:09.659Z,1.45
2022-09-30T12:34:51.398Z,1.58
2022-09-30T12:37:42.859Z,2.28
2022-09-30T12:40:52.411Z,3.58
2022-09-30T12:44:12.457Z,1.45
2022-09-30T12:47:15.265Z,3.05
2022-09-30T12:49:43.724Z,1.67
2022-09-30T12:52:21.324Z,1.50
2022-09-30T12:55:01.303Z,2.80
2022-09-30T12:57:36.228Z,2.55
2022-09-30T13:00:17.962Z,3.28
2022-09-30T13:02:54.359Z,1.00
2022-09-30T13:05:26.918Z,3.30
2022-09-30T13:08:13.880Z,2.65
2022-09-30T13:11:05.054Z,1.58
2022-09-30T13:13:34.781Z,2.65
2022-09-30T13:16:03.749Z,0.85
2022-09-30T13:18:30.532Z,2.92
2022-09-30T13:21:07.757Z,0.88
2022-09-30T13:23:47.170Z,0.98
2022-09-30T13:26:32.546Z,1.80
2022-09-30T13:29:02.620Z,1.90
2022-09-30T13:31:32.762Z,1.52
2022-09-30T13:34:02.502Z,0.93
2022-09-30T13:36:44.329Z,1.30
2022-09-30T13:39:22.190Z,1.52
2022-09-30T13:42:27.932Z,1.35
2022-09-30T13:45:31.891Z,1.58
2022-09-30T13:48:11.387Z,0.82
2022-09-30T13:50:46.501Z,1.42
2022-09-30T13:53:21.068Z,0.90
2022-09-30T13:55:53.643Z,1.35
2022-09-30T13:58:35.133Z,1.67
2022-09-30T14:01:26.889Z,7.25
2022-09-30T14:04:40.869Z,1.30
2022-09-30T14:07:29.283Z,2.42
2022-09-30T14:10:31.025Z,0.85
2022-09-30T14:13:28.508Z,1.95
2022-09-30T14:16:35.138Z,2.97
2022-09-30T14:19:35.230Z,1.52
2022-09-30T14:22:10.263Z,0.88
2022-09-30T14:24:40.645Z,1.90
2022-09-30T14:27:50.518Z,1.95
2022-09-30T14:30:22.061Z,2.72
2022-09-30T14:33:02.641Z,0.95
2022-09-30T14:35:34.016Z,1.80
2022-09-30T14:38:27.926Z,0.80
2022-09-30T14:41:00.557Z,1.13
2022-09-30T14:43:38.998Z,1.27
2022-09-30T14:46:32.693Z,3.05
2022-09-30T14:49:09.203Z,1.35
2022-09-30T14:51:43.501Z,1.35
2022-09-30T14:54:29.177Z,1.15
2022-09-30T14:56:59.164Z,0.68
2022-09-30T14:59:31.230Z,4.03
2022-09-30T15:02:10.357Z,1.08
2022-09-30T15:04:48.977Z,1.20
2022-09-30T15:07:15.962Z,2.45
2022-09-30T15:09:46.374Z,0.90
2022-09-30T15:12:20.825Z,1.70
2022-09-30T15:14:51.384Z,1.60
2022-09-30T15:17:23.644Z,0.60
2022-09-30T15:19:51.195Z,1.40
2022-09-30T15:22:20.441Z,1.13
2022-09-30T15:24:49.963Z,2.33
2022-09-30T15:27:25.948Z,2.55
2022-09-30T15:30:01.835Z,1.00
2022-09-30T15:32:34.636Z,1.45
2022-09-30T15:35:20.732Z,2.28
2022-09-30T15:37:48.556Z,1.77
2022-09-30T15:40:41.740Z,1.55
2022-09-30T15:43:11.776Z,1.92
2022-09-30T15:45:43.237Z,1.95
2022-09-30T15:48:16.941Z,3.08
2022-09-30T15:50:50.245Z,3.88
2022-09-30T15:53:38.768Z,1.02
2022-09-30T15:56:31.137Z,0.82
2022-09-30T15:58:58.181Z,2.25
2022-09-30T16:01:34.193Z,3.13
2022-09-30T16:04:17.239Z,2.08
2022-09-30T16:06:51.730Z,3.58
2022-09-30T16:09:23.492Z,5.82
2022-09-30T16:12:14.248Z,1.83
2022-09-30T16:14:49.974Z,3.38
2022-09-30T16:17:33.400Z,1.05
2022-09-30T16:20:20.241Z,2.05
2022-09-30T16:22:46.946Z,1.70
2022-09-30T16:25:33.528Z,1.80
2022-09-30T16:28:14.965Z,1.83
2022-09-30T16:30:45.852Z,1.10
2022-09-30T16:33:15.278Z,2.25
2022-09-30T16:35:44.020Z,2.10
2022-09-30T16:38:15.504Z,1.65
2022-09-30T16:40:42.250Z,1.10
2022-09-30T16:43:11.533Z,1.40
2022-09-30T16:45:40.254Z,1.30
2022-09-30T16:48:18.952Z,3.13
2022-09-30T16:51:14.688Z,1.50
2022-09-30T16:53:41.699Z,1.35
2022-09-30T16:56:19.501Z,1.40
2022-09-30T16:58:47.303Z,2.28
2022-09-30T17:01:23.895Z,1.08
2022-09-30T17:03:52.661Z,1.67
2022-09-30T17:06:26.084Z,1.60
2022-09-30T17:08:56.869Z,1.63
2022-09-30T17:11:35.439Z,1.35
2022-09-30T17:14:04.372Z,1.90
2022-09-30T17:16:32.027Z,2.72
2022-09-30T17:18:59.102Z,2.17
2022-09-30T17:21:27.211Z,1.85
2022-09-30T17:23:57.924Z,1.70
2022-09-30T17:26:24.679Z,1.73
2022-09-30T17:28:51.465Z,1.77
2022-09-30T17:31:18.290Z,2.65
2022-09-30T17:33:45.068Z,2.17
2022-09-30T17:36:14.892Z,2.15
2022-09-30T17:38:41.709Z,4.55
2022-09-30T17:41:32.365Z,1.95
2022-09-30T17:44:02.477Z,1.27
2022-09-30T17:46:40.441Z,3.65
2022-09-30T17:49:07.508Z,2.55
2022-09-30T17:51:34.859Z,2.80
2022-09-30T17:54:01.996Z,1.60
2022-09-30T17:56:28.913Z,1.73
2022-09-30T17:58:55.653Z,1.80
2022-09-30T18:01:22.405Z,1.40
2022-09-30T18:03:52.911Z,1.42
2022-09-30T18:06:20.920Z,0.95
2022-09-30T18:08:52.493Z,4.65
2022-09-30T18:11:25.967Z,2.80
2022-09-30T18:13:59.330Z,3.22
2022-09-30T18:16:31.027Z,3.28
2022-09-30T18:19:05.477Z,1.27
2022-09-30T18:21:34.920Z,4.50
2022-09-30T18:24:02.534Z,2.88
2022-09-30T18:26:33.477Z,2.20
2022-09-30T18:29:03.457Z,1.20
2022-09-30T18:31:34.596Z,1.55
2022-09-30T18:34:02.660Z,1.58
2022-09-30T18:36:29.651Z,1.15
2022-09-30T18:38:58.728Z,2.05
2022-09-30T18:41:26.826Z,1.60
2022-09-30T18:43:59.301Z,2.60
2022-09-30T18:46:27.763Z,2.13
2022-09-30T18:48:55.218Z,2.47
2022-09-30T18:51:23.127Z,2.13
2022-09-30T18:53:57.446Z,3.97
2022-09-30T18:56:33.325Z,1.90
2022-09-30T18:59:04.459Z,3.67
2022-09-30T19:01:33.918Z,1.65
2022-09-30T19:04:04.470Z,1.98
2022-09-30T19:06:31.600Z,3.08
2022-09-30T19:08:58.335Z,3.13
2022-09-30T19:11:26.023Z,3.53
2022-09-30T19:13:53.410Z,2.17
2022-09-30T19:16:20.320Z,2.28
2022-09-30T19:18:47.309Z,3.75
2022-09-30T19:21:20.293Z,1.90
2022-09-30T19:23:47.613Z,2.35
2022-09-30T19:26:15.554Z,3.13
2022-09-30T19:28:42.933Z,2.80
2022-09-30T19:31:16.890Z,4.35
2022-09-30T19:33:56.205Z,5.10
2022-09-30T19:36:27.052Z,8.32
2022-09-30T19:39:10.057Z,4.93
2022-09-30T19:41:38.949Z,3.83
2022-09-30T19:44:05.655Z,4.30
2022-09-30T19:46:32.567Z,3.25
2022-09-30T19:48:59.374Z,2.63
2022-09-30T19:51:29.045Z,4.72
2022-09-30T19:54:05.226Z,2.92
2022-09-30T19:56:36.061Z,3.13
2022-09-30T19:59:03.791Z,3.42
2022-09-30T20:01:31.234Z,2.72
2022-09-30T20:04:04.674Z,2.90
2022-09-30T20:06:32.633Z,2.85
2022-09-30T20:09:02.267Z,3.10
2022-09-30T20:11:33.417Z,4.47
2022-09-30T20:14:21.432Z,4.40
2022-09-30T20:16:48.428Z,3.83
2022-09-30T20:19:17.391Z,7.65
2022-09-30T20:21:45.731Z,4.03
2022-09-30T20:24:18.062Z,4.67
2022-09-30T20:26:46.269Z,4.85
2022-09-30T20:29:13.721Z,4.43
2022-09-30T20:31:43.207Z,4.27
2022-09-30T20:34:15.300Z,4.15
2022-09-30T20:36:43.597Z,4.87
2022-09-30T20:39:11.357Z,4.00
2022-09-30T20:41:39.795Z,3.97
2022-09-30T20:44:12.066Z,5.00
2022-09-30T20:46:41.400Z,3.43
2022-09-30T20:49:08.886Z,4.37
2022-09-30T20:51:35.967Z,3.00
2022-09-30T20:54:02.921Z,7.13
2022-09-30T20:56:49.649Z,3.67
2022-09-30T20:59:18.587Z,4.13
2022-09-30T21:01:45.325Z,3.73
2022-09-30T21:04:12.072Z,3.35
2022-09-30T21:06:39.219Z,4.32
2022-09-30T21:09:05.929Z,4.57
2022-09-30T21:11:33.606Z,3.70
2022-09-30T21:14:00.641Z,4.60
2022-09-30T21:16:29.380Z,5.23
2022-09-30T21:18:56.468Z,5.73
2022-09-30T21:21:24.740Z,7.63
2022-09-30T21:23:58.571Z,6.57
2022-09-30T21:26:26.676Z,5.33
2022-09-30T21:28:54.002Z,4.67
2022-09-30T21:31:27.286Z,3.97
2022-09-30T21:33:58.263Z,4.17
2022-09-30T21:36:26.588Z,6.22
2022-09-30T21:38:54.745Z,4.93
2022-09-30T21:41:21.602Z,5.17
2022-09-30T21:43:49.058Z,4.20
2022-09-30T21:46:18.223Z,6.27
2022-09-30T21:48:45.993Z,5.43
2022-09-30T21:51:13.743Z,6.53
2022-09-30T21:53:41.167Z,5.27
2022-09-30T21:56:11.300Z,5.63
2022-09-30T21:58:38.457Z,4.47
2022-09-30T22:01:06.945Z,5.57
2022-09-30T22:03:37.761Z,5.47
2022-09-30T22:06:08.188Z,4.17
2022-09-30T22:08:40.728Z,5.63
2022-09-30T22:11:24.846Z,3.90
2022-09-30T22:13:55.456Z,5.20
2022-09-30T22:16:29.692Z,6.83
2022-09-30T22:19:02.412Z,4.20
2022-09-30T22:21:33.523Z,5.17
2022-09-30T22:24:03.057Z,3.87
2022-09-30T22:26:31.423Z,4.67
2022-09-30T22:29:02.794Z,4.07
2022-09-30T22:31:33.052Z,3.20
2022-09-30T22:34:26.212Z,4.63
2022-09-30T22:37:11.445Z,3.83
2022-09-30T22:39:38.172Z,4.13
2022-09-30T22:42:05.009Z,4.50
2022-09-30T22:44:37.104Z,3.07
2022-09-30T22:47:04.855Z,3.73
2022-09-30T22:49:34.385Z,4.43
2022-09-30T22:52:03.483Z,5.85
2022-09-30T22:54:30.756Z,3.77
2022-09-30T22:56:59.158Z,3.28
2022-09-30T22:59:28.439Z,5.37
2022-09-30T23:01:57.339Z,4.60
2022-09-30T23:04:26.872Z,3.50
2022-09-30T23:06:55.438Z,5.68
2022-09-30T23:09:23.079Z,3.85
2022-09-30T23:11:53.544Z,3.53
2022-09-30T23:14:22.075Z,2.90
2022-09-30T23:16:49.317Z,3.60
2022-09-30T23:19:16.108Z,3.53
2022-09-30T23:21:43.164Z,3.70
2022-09-30T23:24:10.447Z,4.90
2022-09-30T23:26:37.235Z,3.33
2022-09-30T23:29:11.636Z,5.68
2022-09-30T23:31:38.941Z,3.50
2022-09-30T23:34:06.419Z,3.72
2022-09-30T23:36:37.021Z,3.05
2022-09-30T23:39:18.510Z,3.40
2022-09-30T23:41:47.621Z,4.00
2022-09-30T23:44:18.555Z,3.73
2022-09-30T23:47:05.791Z,4.97
2022-09-30T23:49:35.202Z,5.30
2022-09-30T23:52:11.987Z,4.78
2022-09-30T23:54:41.663Z,3.60
2022-09-30T23:57:09.537Z,4.80
2022-09-30T23:59:36.924Z,3.80
